Time;durP1;ratioP1;P1;durP2;ratioP2;P2;SDS_P1;SDS_P2;PMS_P1;PMS_P2;Temp;Humidity;BMP_temperature;BMP_pressure;BME280_temperature;BME280_humidity;BME280_pressure;Samples;Min_cycle;Max_cycle;Signal;HPM_P1;HPM_P2
2023/07/05 00:01:19;;;;;;;;;;;;;;;;;;5037349;28;20085;-88
2023/07/05 00:03:45;;;;;;;;;;;;;;;;;;5053579;28;19925;-89
2023/07/05 00:06:11;;;;;;;;;;;;;;;;;;5036961;28;20026;-89
2023/07/05 00:08:37;;;;;;;;;;;;;;;;;;5055111;28;19928;-90
2023/07/05 00:11:03;;;;;;;;;;;;;;;;;;5053547;28;19920;-89
2023/07/05 00:13:29;;;;;;;;;;;;;;;;;;5036952;28;19921;-90
2023/07/05 00:15:55;;;;;;;;;;;;;;;;;;5053720;28;19924;-90
2023/07/05 00:18:21;;;;;;;;;;;;;;;;;;5054764;28;20299;-90
2023/07/05 00:20:46;;;;;;;;;;;;;;;;;;5054744;28;19920;-89
2023/07/05 00:23:12;;;;;;;;;;;;;;;;;;5036787;28;19924;-89
2023/07/05 00:25:38;;;;;;;;;;;;;;;;;;5054630;28;19925;-89
2023/07/05 00:28:04;;;;;;;;;;;;;;;;;;5054799;28;19943;-90
2023/07/05 00:30:30;;;;;;;;;;;;;;;;;;5053035;28;20399;-89
2023/07/05 00:32:56;;;;;;;;;;;;;;;;;;5053608;28;19927;-89
2023/07/05 00:35:22;;;;;;;;;;;;;;;;;;5053386;28;19921;-91
2023/07/05 00:37:48;;;;;;;;;;;;;;;;;;5053494;28;19951;-90
2023/07/05 00:40:14;;;;;;;;;;;;;;;;;;5054523;28;19920;-91
2023/07/05 00:42:40;;;;;;;;;;;;;;;;;;5053573;28;19921;-90
2023/07/05 00:45:05;;;;;;;;;;;;;;;;;;5036477;28;20375;-91
2023/07/05 00:47:31;;;;;;;;;;;;;;;;;;5036507;28;19928;-90
2023/07/05 00:49:57;;;;;;;;;;;;;;;;;;5053426;28;19921;-90
2023/07/05 00:52:23;;;;;;;;;;;;;;;;;;5053000;28;19927;-91
2023/07/05 00:54:49;;;;;;;;;;;;;;;;;;5054103;28;19924;-90
2023/07/05 00:57:17;;;;;;;;;;;;;;;;;;5036408;28;19984;-90
2023/07/05 00:59:43;;;;;;;;;;;;;;;;;;5052895;28;20011;-89
2023/07/05 01:02:09;;;;;;;;;;;;;;;;;;5052765;28;19932;-89
2023/07/05 01:04:35;;;;;;;;;;;;;;;;;;5054000;28;19929;-88
2023/07/05 01:07:01;;;;;;;;;;;;;;;;;;5052602;28;20030;-92
2023/07/05 01:09:28;;;;;;;;;;;;;;;;;;5053952;28;19956;-90
2023/07/05 01:11:54;;;;;;;;;;;;;;;;;;5053040;28;19921;-89
2023/07/05 01:14:20;;;;;;;;;;;;;;;;;;5053966;28;20299;-89
2023/07/05 01:16:46;;;;;;;;;;;;;;;;;;5035887;28;19928;-90
2023/07/05 01:19:12;;;;;;;;;;;;;;;;;;5052308;28;19928;-90
2023/07/05 01:21:38;;;;;;;;;;;;;;;;;;5035757;28;19927;-90
2023/07/05 01:24:04;;;;;;;;;;;;;;;;;;5035976;28;20288;-89
2023/07/05 01:26:30;;;;;;;;;;;;;;;;;;5035975;28;19921;-90
2023/07/05 01:28:56;;;;;;;;;;;;;;;;;;5053613;28;20327;-89
2023/07/05 01:31:22;;;;;;;;;;;;;;;;;;5052124;28;19924;-90
2023/07/05 01:33:49;;;;;;;;;;;;;;;;;;5052300;28;19921;-89
2023/07/05 01:36:15;;;;;;;;;;;;;;;;;;5035271;28;19927;-89
2023/07/05 01:38:41;;;;;;;;;;;;;;;;;;5053549;28;19921;-89
2023/07/05 01:41:07;;;;;;;;;;;;;;;;;;5034506;28;19967;-89
2023/07/05 01:43:33;;;;;;;;;;;;;;;;;;5051902;28;20019;-89
2023/07/05 01:45:59;;;;;;;;;;;;;;;;;;5053207;28;20000;-89
2023/07/05 01:48:25;;;;;;;;;;;;;;;;;;5051796;28;20302;-89
2023/07/05 01:50:51;;;;;;;;;;;;;;;;;;5051531;28;19973;-89
2023/07/05 01:53:17;;;;;;;;;;;;;;;;;;5053664;28;19925;-89
2023/07/05 01:55:42;;;;;;;;;;;;;;;;;;5051533;28;20230;-90
2023/07/05 01:58:08;;;;;;;;;;;;;;;;;;5051745;28;19920;-92
2023/07/05 02:00:36;;;;;;;;;;;;;;;;;;5052245;28;20402;-91
2023/07/05 02:03:04;;;;;;;;;;;;;;;;;;5035223;28;19921;-91
2023/07/05 02:05:30;;;;;;;;;;;;;;;;;;5035260;28;19968;-91
2023/07/05 02:07:56;;;;;;;;;;;;;;;;;;5051526;28;20392;-91
2023/07/05 02:10:23;;;;;;;;;;;;;;;;;;5035030;28;19927;-91
2023/07/05 02:12:49;;;;;;;;;;;;;;;;;;5051871;28;19939;-91
2023/07/05 02:15:15;;;;;;;;;;;;;;;;;;5053075;28;19924;-91
2023/07/05 02:17:41;;;;;;;;;;;;;;;;;;5051844;28;20019;-92
2023/07/05 02:20:07;;;;;;;;;;;;;;;;;;5051770;28;19921;-92
2023/07/05 02:22:33;;;;;;;;;;;;;;;;;;5053346;28;19944;-92
2023/07/05 02:24:59;;;;;;;;;;;;;;;;;;5035058;28;20269;-91
2023/07/05 02:27:25;;;;;;;;;;;;;;;;;;5051624;28;20338;-92
2023/07/05 02:29:50;;;;;;;;;;;;;;;;;;5051701;28;19931;-93
2023/07/05 02:32:16;;;;;;;;;;;;;;;;;;5034923;28;19921;-92
2023/07/05 02:34:42;;;;;;;;;;;;;;;;;;5051368;28;19925;-90
2023/07/05 02:37:08;;;;;;;;;;;;;;;;;;5052541;28;19921;-89
2023/07/05 02:39:34;;;;;;;;;;;;;;;;;;5052480;28;19921;-89
2023/07/05 02:42:00;;;;;;;;;;;;;;;;;;5034458;28;19925;-89
2023/07/05 02:44:26;;;;;;;;;;;;;;;;;;5034366;28;20011;-89
2023/07/05 02:46:52;;;;;;;;;;;;;;;;;;5034222;28;19920;-90
2023/07/05 02:49:18;;;;;;;;;;;;;;;;;;5050882;28;19921;-90
2023/07/05 02:51:44;;;;;;;;;;;;;;;;;;5034394;28;19943;-89
2023/07/05 02:54:10;;;;;;;;;;;;;;;;;;5050808;28;20350;-89
2023/07/05 02:56:35;;;;;;;;;;;;;;;;;;5034135;28;19932;-89
2023/07/05 02:59:01;;;;;;;;;;;;;;;;;;5050872;28;20314;-89
2023/07/05 03:01:27;;;;;;;;;;;;;;;;;;5034024;28;19928;-89
2023/07/05 03:03:53;;;;;;;;;;;;;;;;;;5050985;28;19935;-90
2023/07/05 03:06:19;;;;;;;;;;;;;;;;;;5052784;28;19921;-89
2023/07/05 03:08:45;;;;;;;;;;;;;;;;;;5052963;28;20264;-89
2023/07/05 03:11:11;;;;;;;;;;;;;;;;;;5034303;28;19927;-91
2023/07/05 03:13:37;;;;;;;;;;;;;;;;;;5051242;28;19921;-90
2023/07/05 03:16:03;;;;;;;;;;;;;;;;;;5050824;28;19921;-90
2023/07/05 03:18:29;;;;;;;;;;;;;;;;;;5050760;28;19921;-90
2023/07/05 03:20:55;;;;;;;;;;;;;;;;;;5051360;28;19921;-90
2023/07/05 03:23:20;;;;;;;;;;;;;;;;;;5051480;28;20211;-90
2023/07/05 03:25:46;;;;;;;;;;;;;;;;;;5052881;28;19924;-91
2023/07/05 03:28:12;;;;;;;;;;;;;;;;;;5035333;28;19927;-91
2023/07/05 03:30:38;;;;;;;;;;;;;;;;;;5052081;28;19921;-91
2023/07/05 03:33:04;;;;;;;;;;;;;;;;;;5034550;28;20369;-90
2023/07/05 03:35:30;;;;;;;;;;;;;;;;;;5052179;28;19921;-91
2023/07/05 03:37:56;;;;;;;;;;;;;;;;;;5034264;28;19921;-90
2023/07/05 03:40:22;;;;;;;;;;;;;;;;;;5051005;28;19932;-90
2023/07/05 03:42:48;;;;;;;;;;;;;;;;;;5033912;28;20016;-90
2023/07/05 03:45:14;;;;;;;;;;;;;;;;;;5050384;28;19979;-90
2023/07/05 03:47:40;;;;;;;;;;;;;;;;;;5050276;28;20348;-90
2023/07/05 03:50:06;;;;;;;;;;;;;;;;;;5050764;28;20361;-90
2023/07/05 03:52:31;;;;;;;;;;;;;;;;;;5051927;28;20313;-90
2023/07/05 03:54:58;;;;;;;;;;;;;;;;;;5050329;28;20324;-90
2023/07/05 03:57:24;;;;;;;;;;;;;;;;;;5050309;28;19927;-89
2023/07/05 03:59:50;;;;;;;;;;;;;;;;;;5051378;28;20368;-90
2023/07/05 04:02:16;;;;;;;;;;;;;;;;;;5033446;28;19940;-91
2023/07/05 04:04:44;;;;;;;;;;;;;;;;;;5051789;28;19929;-92
2023/07/05 04:07:10;;;;;;;;;;;;;;;;;;5054450;28;20299;-92
2023/07/05 04:09:36;;;;;;;;;;;;;;;;;;5054213;28;19921;-91
2023/07/05 04:12:02;;;;;;;;;;;;;;;;;;5054203;28;19921;-91
2023/07/05 04:14:27;;;;;;;;;;;;;;;;;;5037366;28;19920;-91
2023/07/05 04:16:53;;;;;;;;;;;;;;;;;;5037276;28;19997;-91
2023/07/05 04:19:19;;;;;;;;;;;;;;;;;;5055187;28;19921;-90
2023/07/05 04:21:45;;;;;;;;;;;;;;;;;;5036993;28;19925;-90
2023/07/05 04:24:11;;;;;;;;;;;;;;;;;;5053771;28;19931;-90
2023/07/05 04:26:37;;;;;;;;;;;;;;;;;;5053341;28;20368;-90
2023/07/05 04:29:03;;;;;;;;;;;;;;;;;;5054892;28;20046;-90
2023/07/05 04:31:29;;;;;;;;;;;;;;;;;;5054822;28;19920;-91
2023/07/05 04:33:55;;;;;;;;;;;;;;;;;;5053511;28;20214;-91
2023/07/05 04:36:21;;;;;;;;;;;;;;;;;;5053659;28;20395;-91
2023/07/05 04:38:47;;;;;;;;;;;;;;;;;;5036812;28;19920;-92
2023/07/05 04:41:13;;;;;;;;;;;;;;;;;;5037237;28;19927;-91
2023/07/05 04:43:38;;;;;;;;;;;;;;;;;;5054868;28;20065;-91
2023/07/05 04:46:04;;;;;;;;;;;;;;;;;;5053026;28;19921;-91
2023/07/05 04:48:30;;;;;;;;;;;;;;;;;;5033057;28;20292;-91
2023/07/05 04:50:57;;;;;;;;;;;;;;;;;;5026621;28;19925;-91
2023/07/05 04:53:23;;;;;;;;;;;;;;;;;;5042015;28;19921;-91
2023/07/05 04:55:49;;;;;;;;;;;;;;;;;;5037389;28;20341;-91
2023/07/05 04:58:17;;;;;;;;;;;;;;;;;;5033336;28;21230;-92
2023/07/05 05:00:46;;;;;;;;;;;;;;;;;;5016161;28;19940;-90
2023/07/05 05:03:12;;;;;;;;;;;;;;;;;;5016431;28;20431;-90
2023/07/05 05:05:38;;;;;;;;;;;;;;;;;;5016186;28;19925;-91
2023/07/05 05:08:03;;;;;;;;;;;;;;;;;;5016655;28;19921;-91
2023/07/05 05:10:29;;;;;;;;;;;;;;;;;;5016489;28;19921;-90
2023/07/05 05:12:55;;;;;;;;;;;;;;;;;;5016650;28;19925;-90
2023/07/05 05:15:21;;;;;;;;;;;;;;;;;;5033898;28;19928;-91
2023/07/05 05:17:47;;;;;;;;;;;;;;;;;;5033863;28;20269;-92
2023/07/05 05:20:13;;;;;;;;;;;;;;;;;;5032959;28;20022;-91
2023/07/05 05:22:39;;;;;;;;;;;;;;;;;;5016251;28;19925;-92
2023/07/05 05:25:05;;;;;;;;;;;;;;;;;;5032984;28;19998;-91
2023/07/05 05:27:31;;;;;;;;;;;;;;;;;;5016081;28;20293;-89
2023/07/05 05:29:56;;;;;;;;;;;;;;;;;;5016201;28;20261;-90
2023/07/05 05:32:22;;;;;;;;;;;;;;;;;;5032836;28;20029;-91
2023/07/05 05:34:48;;;;;;;;;;;;;;;;;;5032808;28;19928;-93
2023/07/05 05:37:14;;;;;;;;;;;;;;;;;;5016164;28;20008;-92
2023/07/05 05:39:40;;;;;;;;;;;;;;;;;;5032722;28;19956;-92
2023/07/05 05:42:06;;;;;;;;;;;;;;;;;;5032553;28;19921;-92
2023/07/05 05:44:32;;;;;;;;;;;;;;;;;;5015902;28;19976;-91
2023/07/05 05:46:58;;;;;;;;;;;;;;;;;;5032693;28;19940;-91
2023/07/05 05:49:24;;;;;;;;;;;;;;;;;;5032419;28;19928;-91
2023/07/05 05:51:50;;;;;;;;;;;;;;;;;;5032646;28;19928;-91
2023/07/05 05:54:16;;;;;;;;;;;;;;;;;;5032424;28;19921;-92
2023/07/05 05:56:42;;;;;;;;;;;;;;;;;;5033156;28;19936;-91
2023/07/05 05:59:08;;;;;;;;;;;;;;;;;;5016105;28;19942;-92
2023/07/05 06:01:34;;;;;;;;;;;;;;;;;;5032687;28;19927;-91
2023/07/05 06:04:00;;;;;;;;;;;;;;;;;;5015914;28;19921;-93
2023/07/05 06:06:25;;;;;;;;;;;;;;;;;;5033591;28;19932;-94
2023/07/05 06:08:51;;;;;;;;;;;;;;;;;;5034478;28;19921;-93
2023/07/05 06:11:17;;;;;;;;;;;;;;;;;;5016419;28;20005;-93
2023/07/05 06:13:43;;;;;;;;;;;;;;;;;;5016454;28;19932;-93
2023/07/05 06:16:09;;;;;;;;;;;;;;;;;;5032656;28;20285;-93
2023/07/05 06:18:35;;;;;;;;;;;;;;;;;;5015910;28;20273;-93
2023/07/05 06:21:01;;;;;;;;;;;;;;;;;;5033281;28;19991;-91
2023/07/05 06:23:27;;;;;;;;;;;;;;;;;;5032074;28;20024;-92
2023/07/05 06:25:53;;;;;;;;;;;;;;;;;;5031901;28;20022;-92
2023/07/05 06:28:19;;;;;;;;;;;;;;;;;;5031843;28;19936;-92
2023/07/05 06:30:45;;;;;;;;;;;;;;;;;;5032314;28;19925;-94
2023/07/05 06:33:11;;;;;;;;;;;;;;;;;;5015600;28;20004;-93
2023/07/05 06:35:37;;;;;;;;;;;;;;;;;;5015658;28;19921;-94
2023/07/05 06:38:03;;;;;;;;;;;;;;;;;;5032095;28;20335;-94
2023/07/05 06:40:28;;;;;;;;;;;;;;;;;;5033041;28;20020;-92
2023/07/05 06:42:54;;;;;;;;;;;;;;;;;;5015391;28;19972;-91
2023/07/05 06:45:20;;;;;;;;;;;;;;;;;;5032846;28;19972;-90
2023/07/05 06:47:46;;;;;;;;;;;;;;;;;;5031196;28;19921;-92
2023/07/05 06:50:12;;;;;;;;;;;;;;;;;;5031765;28;19927;-91
2023/07/05 06:52:39;;;;;;;;;;;;;;;;;;5032038;28;20007;-92
2023/07/05 06:55:05;;;;;;;;;;;;;;;;;;5031116;28;20476;-92
2023/07/05 06:57:31;;;;;;;;;;;;;;;;;;5014698;28;19968;-90
2023/07/05 06:59:57;;;;;;;;;;;;;;;;;;5031361;28;20015;-90
2023/07/05 07:02:23;;;;;;;;;;;;;;;;;;5031187;28;20000;-91
2023/07/05 07:04:49;;;;;;;;;;;;;;;;;;5032507;28;20336;-91
2023/07/05 07:07:14;;;;;;;;;;;;;;;;;;5030928;28;20230;-90
2023/07/05 07:09:43;;;;;;;;;;;;;;;;;;5031019;28;19921;-89
2023/07/05 07:12:09;;;;;;;;;;;;;;;;;;5014353;28;19955;-89
2023/07/05 07:14:35;;;;;;;;;;;;;;;;;;5030748;28;20082;-90
2023/07/05 07:17:01;;;;;;;;;;;;;;;;;;5014362;28;19928;-89
2023/07/05 07:19:27;;;;;;;;;;;;;;;;;;5032345;28;19940;-90
2023/07/05 07:21:53;;;;;;;;;;;;;;;;;;5032031;28;19921;-91
2023/07/05 07:24:19;;;;;;;;;;;;;;;;;;5014322;28;20090;-90
2023/07/05 07:26:45;;;;;;;;;;;;;;;;;;5014346;28;19929;-91
2023/07/05 07:29:11;;;;;;;;;;;;;;;;;;5030800;28;19928;-90
2023/07/05 07:31:37;;;;;;;;;;;;;;;;;;5014483;28;19961;-90
2023/07/05 07:34:05;;;;;;;;;;;;;;;;;;5031267;28;20356;-91
2023/07/05 07:36:31;;;;;;;;;;;;;;;;;;5031013;28;19971;-90
2023/07/05 07:38:56;;;;;;;;;;;;;;;;;;5031971;28;19921;-90
2023/07/05 07:41:22;;;;;;;;;;;;;;;;;;5018387;28;19921;-89
2023/07/05 07:43:48;;;;;;;;;;;;;;;;;;5034542;28;20269;-89
2023/07/05 07:46:14;;;;;;;;;;;;;;;;;;5036286;28;19952;-88
2023/07/05 07:48:40;;;;;;;;;;;;;;;;;;5054228;28;19943;-88
2023/07/05 07:51:06;;;;;;;;;;;;;;;;;;5037456;28;20311;-87
2023/07/05 07:53:32;;;;;;;;;;;;;;;;;;5053781;28;19928;-88
2023/07/05 07:55:58;;;;;;;;;;;;;;;;;;5055183;28;19928;-87
2023/07/05 07:58:24;;;;;;;;;;;;;;;;;;5053998;28;19928;-88
2023/07/05 08:00:50;;;;;;;;;;;;;;;;;;5037805;28;19993;-88
2023/07/05 08:03:16;;;;;;;;;;;;;;;;;;5053974;28;20404;-88
2023/07/05 08:05:42;;;;;;;;;;;;;;;;;;5053820;28;20015;-88
2023/07/05 08:08:08;;;;;;;;;;;;;;;;;;5053978;28;20015;-88
2023/07/05 08:10:34;;;;;;;;;;;;;;;;;;5053750;28;19921;-88
2023/07/05 08:13:00;;;;;;;;;;;;;;;;;;5053688;28;20264;-88
2023/07/05 08:15:26;;;;;;;;;;;;;;;;;;5055423;28;20343;-87
2023/07/05 08:17:52;;;;;;;;;;;;;;;;;;5053727;28;20012;-87
2023/07/05 08:20:18;;;;;;;;;;;;;;;;;;5053167;28;20061;-87
2023/07/05 08:22:44;;;;;;;;;;;;;;;;;;5053319;28;19920;-88
2023/07/05 08:25:10;;;;;;;;;;;;;;;;;;5055483;28;20481;-87
2023/07/05 08:27:36;;;;;;;;;;;;;;;;;;5053293;28;19921;-87
2023/07/05 08:30:02;;;;;;;;;;;;;;;;;;5036661;28;20016;-86
2023/07/05 08:32:28;;;;;;;;;;;;;;;;;;5054603;28;19960;-87
2023/07/05 08:34:54;;;;;;;;;;;;;;;;;;5053282;28;19920;-87
2023/07/05 08:37:20;;;;;;;;;;;;;;;;;;5053175;28;19965;-88
2023/07/05 08:39:46;;;;;;;;;;;;;;;;;;5036700;28;20023;-88
2023/07/05 08:42:12;;;;;;;;;;;;;;;;;;5036061;28;19921;-88
2023/07/05 08:44:38;;;;;;;;;;;;;;;;;;5052988;28;20011;-87
2023/07/05 08:47:05;;;;;;;;;;;;;;;;;;5053272;28;19927;-88
2023/07/05 08:49:31;;;;;;;;;;;;;;;;;;5049220;28;19928;-88
2023/07/05 08:51:57;;;;;;;;;;;;;;;;;;5039724;28;20019;-87
2023/07/05 08:54:28;;;;;;;;;;;;;;;;;;5052989;28;19925;-89
2023/07/05 08:56:54;;;;;;;;;;;;;;;;;;5053183;28;20011;-90
2023/07/05 08:59:20;;;;;;;;;;;;;;;;;;5053008;28;19921;-89
2023/07/05 09:01:46;;;;;;;;;;;;;;;;;;5054282;28;19921;-88
2023/07/05 09:04:12;;;;;;;;;;;;;;;;;;5052830;28;19924;-89
2023/07/05 09:06:38;;;;;;;;;;;;;;;;;;5052693;28;20012;-88
2023/07/05 09:09:04;;;;;;;;;;;;;;;;;;5054270;28;19921;-88
2023/07/05 09:11:30;;;;;;;;;;;;;;;;;;5054172;28;20123;-88
2023/07/05 09:13:56;;;;;;;;;;;;;;;;;;5052434;28;20032;-86
2023/07/05 09:16:22;;;;;;;;;;;;;;;;;;5052533;28;20011;-88
2023/07/05 09:18:48;;;;;;;;;;;;;;;;;;5052721;28;19920;-89
2023/07/05 09:21:14;;;;;;;;;;;;;;;;;;5053007;28;19927;-88
2023/07/05 09:23:40;;;;;;;;;;;;;;;;;;5052770;28;19932;-89
2023/07/05 09:26:05;;;;;;;;;;;;;;;;;;5052457;28;19978;-90
2023/07/05 09:28:31;;;;;;;;;;;;;;;;;;5052504;28;20004;-89
2023/07/05 09:30:57;;;;;;;;;;;;;;;;;;5052402;28;19920;-91
2023/07/05 09:33:23;;;;;;;;;;;;;;;;;;5035668;28;19998;-88
2023/07/05 09:35:49;;;;;;;;;;;;;;;;;;5052418;28;20380;-88
2023/07/05 09:38:15;;;;;;;;;;;;;;;;;;5053624;28;19928;-88
2023/07/05 09:40:41;;;;;;;;;;;;;;;;;;5053720;28;19972;-88
2023/07/05 09:43:07;;;;;;;;;;;;;;;;;;5052233;28;20384;-89
2023/07/05 09:45:33;;;;;;;;;;;;;;;;;;5051779;28;20008;-90
2023/07/05 09:47:59;;;;;;;;;;;;;;;;;;5052255;28;19920;-90
2023/07/05 09:50:25;;;;;;;;;;;;;;;;;;5052100;28;20573;-89
2023/07/05 09:52:50;;;;;;;;;;;;;;;;;;5051928;28;19921;-88
2023/07/05 09:55:17;;;;;;;;;;;;;;;;;;5051835;28;19975;-88
2023/07/05 09:57:42;;;;;;;;;;;;;;;;;;5053213;28;19963;-87
2023/07/05 10:00:08;;;;;;;;;;;;;;;;;;5051709;28;19921;-89
2023/07/05 10:02:35;;;;;;;;;;;;;;;;;;5050887;28;19925;-88
2023/07/05 10:05:01;;;;;;;;;;;;;;;;;;5034886;28;19925;-88
2023/07/05 10:07:27;;;;;;;;;;;;;;;;;;5052945;28;19921;-89
2023/07/05 10:09:53;;;;;;;;;;;;;;;;;;5051535;28;19921;-87
2023/07/05 10:12:19;;;;;;;;;;;;;;;;;;5051500;28;19927;-91
2023/07/05 10:14:46;;;;;;;;;;;;;;;;;;5052597;28;19929;-90
2023/07/05 10:17:12;;;;;;;;;;;;;;;;;;5034613;28;19927;-89
2023/07/05 10:19:38;;;;;;;;;;;;;;;;;;5051528;28;20011;-88
2023/07/05 10:22:04;;;;;;;;;;;;;;;;;;5053144;28;20427;-92
2023/07/05 10:24:30;;;;;;;;;;;;;;;;;;5051762;28;19924;-91
2023/07/05 10:26:56;;;;;;;;;;;;;;;;;;5034907;28;19921;-91
2023/07/05 10:29:22;;;;;;;;;;;;;;;;;;5051653;28;19931;-91
2023/07/05 10:31:47;;;;;;;;;;;;;;;;;;5053000;28;19975;-90
2023/07/05 10:34:13;;;;;;;;;;;;;;;;;;5051482;28;20015;-90
2023/07/05 10:36:39;;;;;;;;;;;;;;;;;;5051610;28;19921;-92
2023/07/05 10:39:05;;;;;;;;;;;;;;;;;;5051111;28;19936;-90
2023/07/05 10:41:31;;;;;;;;;;;;;;;;;;5052612;28;19967;-90
2023/07/05 10:43:57;;;;;;;;;;;;;;;;;;5051393;28;19924;-90
2023/07/05 10:46:23;;;;;;;;;;;;;;;;;;5051988;28;19989;-90
2023/07/05 10:48:49;;;;;;;;;;;;;;;;;;5052259;28;19921;-90
2023/07/05 10:51:15;;;;;;;;;;;;;;;;;;5034085;28;19924;-89
2023/07/05 10:53:41;;;;;;;;;;;;;;;;;;5034247;28;19921;-89
2023/07/05 10:56:07;;;;;;;;;;;;;;;;;;5051831;28;19928;-89
2023/07/05 10:58:33;;;;;;;;;;;;;;;;;;5052124;28;20375;-87
2023/07/05 11:00:59;;;;;;;;;;;;;;;;;;5051888;28;20269;-89
2023/07/05 11:03:25;;;;;;;;;;;;;;;;;;5052185;28;20436;-87
2023/07/05 11:05:51;;;;;;;;;;;;;;;;;;5052180;28;19932;-87
2023/07/05 11:08:17;;;;;;;;;;;;;;;;;;5050518;28;19921;-87
2023/07/05 11:10:43;;;;;;;;;;;;;;;;;;5050664;28;19925;-88
2023/07/05 11:13:11;;;;;;;;;;;;;;;;;;5052685;28;19931;-89
2023/07/05 11:15:36;;;;;;;;;;;;;;;;;;5054830;28;19920;-88
2023/07/05 11:18:02;;;;;;;;;;;;;;;;;;5054738;28;20281;-88
2023/07/05 11:20:28;;;;;;;;;;;;;;;;;;5056162;28;19931;-88
2023/07/05 11:22:54;;;;;;;;;;;;;;;;;;5054516;28;19932;-88
2023/07/05 11:25:20;;;;;;;;;;;;;;;;;;5054718;28;19925;-88
2023/07/05 11:27:46;;;;;;;;;;;;;;;;;;5054758;28;19924;-88
2023/07/05 11:30:12;;;;;;;;;;;;;;;;;;5055690;28;19920;-88
2023/07/05 11:32:38;;;;;;;;;;;;;;;;;;5054927;28;19921;-89
2023/07/05 11:35:04;;;;;;;;;;;;;;;;;;5054839;28;19931;-88
2023/07/05 11:37:30;;;;;;;;;;;;;;;;;;5054391;28;19928;-87
2023/07/05 11:39:56;;;;;;;;;;;;;;;;;;5055593;28;19925;-89
2023/07/05 11:42:24;;;;;;;;;;;;;;;;;;5054950;28;19975;-88
2023/07/05 11:44:50;;;;;;;;;;;;;;;;;;5054582;28;19925;-88
2023/07/05 11:47:16;;;;;;;;;;;;;;;;;;5055900;28;19982;-88
2023/07/05 11:49:42;;;;;;;;;;;;;;;;;;5054601;28;20346;-88
2023/07/05 11:52:08;;;;;;;;;;;;;;;;;;5037797;28;20003;-89
2023/07/05 11:54:35;;;;;;;;;;;;;;;;;;5054540;28;20011;-89
2023/07/05 11:57:01;;;;;;;;;;;;;;;;;;5037466;28;19920;-88
2023/07/05 11:59:27;;;;;;;;;;;;;;;;;;5055428;28;20279;-88
2023/07/05 12:01:53;;;;;;;;;;;;;;;;;;5055439;28;19920;-88
2023/07/05 12:04:18;;;;;;;;;;;;;;;;;;5054608;28;19925;-88
2023/07/05 12:06:44;;;;;;;;;;;;;;;;;;5055161;28;19920;-89
2023/07/05 12:09:10;;;;;;;;;;;;;;;;;;5054269;28;19936;-87
2023/07/05 12:11:37;;;;;;;;;;;;;;;;;;5055714;28;19920;-87
2023/07/05 12:14:03;;;;;;;;;;;;;;;;;;5021301;28;20412;-88
2023/07/05 12:16:29;;;;;;;;;;;;;;;;;;5053897;28;19921;-88
2023/07/05 12:18:55;;;;;;;;;;;;;;;;;;5053681;28;19924;-89
2023/07/05 12:21:21;;;;;;;;;;;;;;;;;;5053836;28;19983;-88
2023/07/05 12:23:47;;;;;;;;;;;;;;;;;;5054993;28;19964;-87
2023/07/05 12:26:13;;;;;;;;;;;;;;;;;;5035832;28;20023;-87
2023/07/05 12:28:39;;;;;;;;;;;;;;;;;;5053338;28;19925;-88
2023/07/05 12:31:05;;;;;;;;;;;;;;;;;;5055266;28;19925;-89
2023/07/05 12:33:31;;;;;;;;;;;;;;;;;;5054661;28;19928;-89
2023/07/05 12:35:58;;;;;;;;;;;;;;;;;;5054881;28;19921;-90
2023/07/05 12:38:24;;;;;;;;;;;;;;;;;;5054693;28;20299;-89
2023/07/05 12:40:54;;;;;;;;;;;;;;;;;;5036364;28;19921;-87
2023/07/05 12:43:22;;;;;;;;;;;;;;;;;;5053123;28;19968;-87
2023/07/05 12:45:48;;;;;;;;;;;;;;;;;;5052984;28;20344;-87
2023/07/05 12:48:14;;;;;;;;;;;;;;;;;;5052833;28;20016;-87
2023/07/05 12:50:41;;;;;;;;;;;;;;;;;;5053065;28;19940;-87
2023/07/05 12:53:07;;;;;;;;;;;;;;;;;;5054238;28;19927;-89
2023/07/05 12:55:32;;;;;;;;;;;;;;;;;;5052559;28;19924;-88
2023/07/05 12:57:58;;;;;;;;;;;;;;;;;;5052725;28;20066;-87
2023/07/05 13:00:24;;;;;;;;;;;;;;;;;;5054306;28;19931;-87
2023/07/05 13:02:50;;;;;;;;;;;;;;;;;;5054041;28;19921;-88
2023/07/05 13:05:16;;;;;;;;;;;;;;;;;;5053863;28;20021;-88
2023/07/05 13:07:42;;;;;;;;;;;;;;;;;;5035958;28;19928;-88
2023/07/05 13:10:08;;;;;;;;;;;;;;;;;;5053979;28;19921;-88
2023/07/05 13:12:34;;;;;;;;;;;;;;;;;;5052464;28;19921;-88
2023/07/05 13:15:00;;;;;;;;;;;;;;;;;;5052551;28;20007;-89
2023/07/05 13:17:26;;;;;;;;;;;;;;;;;;5052425;28;19924;-87
2023/07/05 13:19:52;;;;;;;;;;;;;;;;;;5053976;28;19944;-88
2023/07/05 13:22:17;;;;;;;;;;;;;;;;;;5052383;28;19928;-88
2023/07/05 13:24:43;;;;;;;;;;;;;;;;;;5052165;28;19968;-88
2023/07/05 13:27:09;;;;;;;;;;;;;;;;;;5052259;28;19943;-88
2023/07/05 13:29:36;;;;;;;;;;;;;;;;;;5052573;28;20392;-88
2023/07/05 13:32:02;;;;;;;;;;;;;;;;;;5053504;28;19921;-88
2023/07/05 13:34:27;;;;;;;;;;;;;;;;;;5053564;28;19966;-88
2023/07/05 13:36:53;;;;;;;;;;;;;;;;;;5050990;28;19970;-92
2023/07/05 13:39:19;;;;;;;;;;;;;;;;;;5052018;28;20000;-89
2023/07/05 13:41:45;;;;;;;;;;;;;;;;;;5053258;28;20390;-89
2023/07/05 13:44:11;;;;;;;;;;;;;;;;;;5051961;28;20011;-89
2023/07/05 13:46:37;;;;;;;;;;;;;;;;;;5052135;28;19927;-89
2023/07/05 13:49:03;;;;;;;;;;;;;;;;;;5051933;28;19920;-89
2023/07/05 13:51:30;;;;;;;;;;;;;;;;;;5034959;28;20372;-88
2023/07/05 13:53:56;;;;;;;;;;;;;;;;;;5051430;28;19924;-88
2023/07/05 13:56:21;;;;;;;;;;;;;;;;;;5051292;28;19925;-88
2023/07/05 13:58:48;;;;;;;;;;;;;;;;;;5052879;28;19921;-89
2023/07/05 14:01:14;;;;;;;;;;;;;;;;;;5034758;28;19974;-88
2023/07/05 14:03:41;;;;;;;;;;;;;;;;;;5051343;28;19936;-88
2023/07/05 14:06:07;;;;;;;;;;;;;;;;;;5051560;28;21600;-87
2023/07/05 14:08:33;;;;;;;;;;;;;;;;;;5051235;28;19927;-86
2023/07/05 14:10:59;;;;;;;;;;;;;;;;;;5051176;28;19920;-87
2023/07/05 14:13:25;;;;;;;;;;;;;;;;;;5051248;28;19931;-87
2023/07/05 14:15:51;;;;;;;;;;;;;;;;;;5051078;28;19928;-88
2023/07/05 14:18:17;;;;;;;;;;;;;;;;;;5052424;28;19920;-89
2023/07/05 14:20:43;;;;;;;;;;;;;;;;;;5034463;28;19921;-88
2023/07/05 14:23:09;;;;;;;;;;;;;;;;;;5051076;28;19924;-88
2023/07/05 14:25:35;;;;;;;;;;;;;;;;;;5051178;28;19936;-88
2023/07/05 14:28:01;;;;;;;;;;;;;;;;;;5050985;28;19920;-89
2023/07/05 14:30:27;;;;;;;;;;;;;;;;;;5034250;28;19968;-88
2023/07/05 14:32:53;;;;;;;;;;;;;;;;;;5050899;28;19968;-88
2023/07/05 14:35:19;;;;;;;;;;;;;;;;;;5050813;28;19970;-88
2023/07/05 14:37:45;;;;;;;;;;;;;;;;;;5034241;28;19924;-88
2023/07/05 14:40:11;;;;;;;;;;;;;;;;;;5034743;28;19921;-88
2023/07/05 14:42:37;;;;;;;;;;;;;;;;;;5050601;28;19920;-88
2023/07/05 14:45:03;;;;;;;;;;;;;;;;;;5050584;28;19925;-88
2023/07/05 14:47:29;;;;;;;;;;;;;;;;;;5050575;28;19927;-90
2023/07/05 14:49:55;;;;;;;;;;;;;;;;;;5033697;28;19931;-90
2023/07/05 14:52:21;;;;;;;;;;;;;;;;;;5033942;28;20277;-91
2023/07/05 14:54:47;;;;;;;;;;;;;;;;;;5034088;28;19980;-90
2023/07/05 14:57:13;;;;;;;;;;;;;;;;;;5051086;28;19920;-90
2023/07/05 14:59:39;;;;;;;;;;;;;;;;;;5034497;28;20368;-89
2023/07/05 15:02:05;;;;;;;;;;;;;;;;;;5052019;28;20442;-89
2023/07/05 15:04:31;;;;;;;;;;;;;;;;;;5050525;28;19975;-89
2023/07/05 15:06:56;;;;;;;;;;;;;;;;;;5050443;28;19921;-90
2023/07/05 15:09:23;;;;;;;;;;;;;;;;;;5034264;28;20303;-91
2023/07/05 15:11:49;;;;;;;;;;;;;;;;;;5033880;28;20455;-91
2023/07/05 15:14:15;;;;;;;;;;;;;;;;;;5050925;28;19925;-89
2023/07/05 15:16:41;;;;;;;;;;;;;;;;;;5050674;28;20008;-90
2023/07/05 15:19:08;;;;;;;;;;;;;;;;;;5050341;28;19921;-88
2023/07/05 15:21:34;;;;;;;;;;;;;;;;;;5051636;28;20008;-88
2023/07/05 15:24:00;;;;;;;;;;;;;;;;;;5050170;28;19972;-89
2023/07/05 15:26:26;;;;;;;;;;;;;;;;;;5050159;28;19925;-88
2023/07/05 15:28:52;;;;;;;;;;;;;;;;;;5051577;28;19928;-88
2023/07/05 15:31:20;;;;;;;;;;;;;;;;;;5051537;28;19921;-88
2023/07/05 15:33:46;;;;;;;;;;;;;;;;;;5033919;28;20253;-88
2023/07/05 15:36:11;;;;;;;;;;;;;;;;;;5051699;28;19931;-88
2023/07/05 15:38:37;;;;;;;;;;;;;;;;;;5050365;28;19921;-88
2023/07/05 15:41:03;;;;;;;;;;;;;;;;;;5033803;28;20284;-88
2023/07/05 15:43:29;;;;;;;;;;;;;;;;;;5051658;28;19921;-88
2023/07/05 15:45:56;;;;;;;;;;;;;;;;;;5051474;28;19939;-89
2023/07/05 15:48:22;;;;;;;;;;;;;;;;;;5050107;28;20392;-89
2023/07/05 15:50:48;;;;;;;;;;;;;;;;;;5050225;28;19924;-89
2023/07/05 15:53:13;;;;;;;;;;;;;;;;;;5033794;28;19928;-89
2023/07/05 15:55:39;;;;;;;;;;;;;;;;;;5051293;28;20284;-88
2023/07/05 15:58:05;;;;;;;;;;;;;;;;;;5050104;28;19925;-88
2023/07/05 16:00:36;;;;;;;;;;;;;;;;;;5034588;28;19921;-89
2023/07/05 16:03:03;;;;;;;;;;;;;;;;;;5053580;28;19944;-87
2023/07/05 16:05:29;;;;;;;;;;;;;;;;;;5053523;28;19997;-87
2023/07/05 16:07:54;;;;;;;;;;;;;;;;;;5055070;28;19921;-87
2023/07/05 16:10:20;;;;;;;;;;;;;;;;;;5053740;28;19921;-87
2023/07/05 16:12:48;;;;;;;;;;;;;;;;;;5055215;28;19982;-87
2023/07/05 16:15:14;;;;;;;;;;;;;;;;;;5037039;28;19920;-88
2023/07/05 16:17:40;;;;;;;;;;;;;;;;;;5053317;28;19921;-87
2023/07/05 16:20:06;;;;;;;;;;;;;;;;;;5054890;28;20027;-87
2023/07/05 16:22:32;;;;;;;;;;;;;;;;;;5054783;28;19927;-87
2023/07/05 16:24:58;;;;;;;;;;;;;;;;;;5054634;28;20419;-86
2023/07/05 16:27:24;;;;;;;;;;;;;;;;;;5053538;28;20031;-86
2023/07/05 16:29:50;;;;;;;;;;;;;;;;;;5054614;28;20388;-89
2023/07/05 16:32:16;;;;;;;;;;;;;;;;;;5054510;28;19932;-89
2023/07/05 16:34:41;;;;;;;;;;;;;;;;;;5053283;28;19932;-88
2023/07/05 16:37:07;;;;;;;;;;;;;;;;;;5053209;28;20000;-87